Time;durP1;ratioP1;P1;durP2;ratioP2;P2;SDS_P1;SDS_P2;PMS_P1;PMS_P2;Temp;Humidity;BMP_temperature;BMP_pressure;BME280_temperature;BME280_humidity;BME280_pressure;Samples;Min_cycle;Max_cycle;Signal;HPM_P1;HPM_P2
2021/12/03 00:00:28;;;;;;;17.38;5.13;;;;;;;-1.31;100.00;101159.88;5011268;28;20058;-72
2021/12/03 00:02:54;;;;;;;14.55;5.13;;;;;;;-1.29;100.00;101152.84;5011861;28;20080;-72
2021/12/03 00:05:21;;;;;;;16.08;6.40;;;;;;;-1.24;100.00;101156.13;5011857;28;20042;-72
2021/12/03 00:07:47;;;;;;;16.73;6.75;;;;;;;-1.20;100.00;101155.13;5011904;28;20038;-72
2021/12/03 00:10:14;;;;;;;16.08;6.50;;;;;;;-1.13;100.00;101163.59;5011231;28;20037;-72
2021/12/03 00:12:41;;;;;;;18.98;7.78;;;;;;;-1.09;100.00;101159.94;5012005;28;20030;-72
2021/12/03 00:15:09;;;;;;;14.50;6.93;;;;;;;-1.04;100.00;101163.25;5011459;28;20030;-79
2021/12/03 00:17:35;;;;;;;21.40;8.18;;;;;;;-0.97;100.00;101159.50;5011879;28;20037;-72
2021/12/03 00:20:00;;;;;;;18.90;6.90;;;;;;;-0.87;100.00;101167.84;5012107;28;20059;-72
2021/12/03 00:22:25;;;;;;;17.17;7.32;;;;;;;-0.83;100.00;101161.59;5010202;28;20038;-72
2021/12/03 00:24:51;;;;;;;15.00;7.28;;;;;;;-0.81;100.00;101157.16;5011883;28;20022;-72
2021/12/03 00:27:17;;;;;;;13.60;5.57;;;;;;;-0.78;100.00;101167.47;5011176;28;20030;-72
2021/12/03 00:29:42;;;;;;;24.60;5.88;;;;;;;-0.77;100.00;101158.75;5011562;28;20034;-72
2021/12/03 00:32:08;;;;;;;12.73;5.47;;;;;;;-0.74;100.00;101171.69;5011433;28;20044;-79
2021/12/03 00:34:33;;;;;;;25.05;5.10;;;;;;;-0.67;100.00;101171.44;5011611;28;20496;-72
2021/12/03 00:36:59;;;;;;;9.68;4.32;;;;;;;-0.69;100.00;101168.91;5011720;28;20092;-71
2021/12/03 00:39:26;;;;;;;11.25;3.88;;;;;;;-0.72;100.00;101162.03;5011173;28;20076;-72
2021/12/03 00:41:57;;;;;;;20.25;4.55;;;;;;;-0.75;100.00;101171.75;5011963;28;20466;-72
2021/12/03 00:44:24;;;;;;;12.38;3.55;;;;;;;-0.80;100.00;101171.09;5011160;28;20033;-72
2021/12/03 00:46:50;;;;;;;17.45;4.10;;;;;;;-0.85;100.00;101167.78;5011939;28;20041;-71
2021/12/03 00:49:15;;;;;;;7.03;3.75;;;;;;;-0.89;100.00;101157.44;5011301;28;20375;-72
2021/12/03 00:51:41;;;;;;;11.63;3.60;;;;;;;-0.93;100.00;101158.47;5011828;28;20496;-72
2021/12/03 00:54:06;;;;;;;13.00;4.38;;;;;;;-0.92;100.00;101167.16;5011657;28;20034;-72
2021/12/03 00:56:31;;;;;;;13.55;4.28;;;;;;;-0.93;100.00;101160.22;5011108;28;20096;-72
2021/12/03 00:58:57;;;;;;;11.88;3.40;;;;;;;-0.96;100.00;101152.50;5010206;28;20038;-72
2021/12/03 01:01:22;;;;;;;10.25;3.75;;;;;;;-0.98;100.00;101157.78;5011057;28;20030;-72
2021/12/03 01:03:48;;;;;;;10.48;3.47;;;;;;;-0.98;100.00;101156.94;5011798;28;20030;-72
2021/12/03 01:06:13;;;;;;;26.60;4.53;;;;;;;-1.00;100.00;101154.41;5011424;28;20037;-79
2021/12/03 01:08:39;;;;;;;12.48;3.95;;;;;;;-0.95;100.00;101151.63;5011704;28;20073;-71
2021/12/03 01:11:07;;;;;;;12.82;3.60;;;;;;;-0.88;100.00;101145.25;5014099;28;20030;-71
2021/12/03 01:13:33;;;;;;;14.32;3.90;;;;;;;-0.80;100.00;101143.19;5014296;28;20363;-72
2021/12/03 01:15:59;;;;;;;15.93;4.60;;;;;;;-0.74;100.00;101135.09;5015056;28;20034;-72
2021/12/03 01:18:25;;;;;;;11.18;3.95;;;;;;;-0.72;100.00;101135.91;5014617;28;20056;-72
2021/12/03 01:20:51;;;;;;;8.55;3.78;;;;;;;-0.68;100.00;101143.63;5015399;28;20062;-72
2021/12/03 01:23:16;;;;;;;8.35;3.85;;;;;;;-0.68;100.00;101135.78;5013298;28;20061;-79
2021/12/03 01:25:42;;;;;;;15.70;3.95;;;;;;;-0.67;100.00;101142.69;5014945;28;20037;-72
2021/12/03 01:28:08;;;;;;;14.00;4.00;;;;;;;-0.67;100.00;101140.97;5014677;28;20034;-72
2021/12/03 01:30:34;;;;;;;10.40;4.32;;;;;;;-0.66;100.00;101141.78;5014399;28;20041;-71
2021/12/03 01:33:00;;;;;;;11.57;3.90;;;;;;;-0.60;100.00;101141.56;5014869;28;20057;-70
2021/12/03 01:35:27;;;;;;;12.82;3.83;;;;;;;-0.57;100.00;101144.03;5014126;28;20061;-70
2021/12/03 01:37:53;;;;;;;11.13;3.65;;;;;;;-0.55;100.00;101147.47;5036633;22;20087;-72
2021/12/03 01:40:21;;;;;;;13.43;3.80;;;;;;;-0.52;100.00;101146.47;5033582;28;20061;-77
2021/12/03 01:42:47;;;;;;;9.55;3.53;;;;;;;-0.51;100.00;101142.97;5033942;28;20029;-72
2021/12/03 01:45:17;;;;;;;12.75;3.90;;;;;;;-0.49;100.00;101144.63;5033163;28;20029;-71
2021/12/03 01:47:45;;;;;;;15.00;4.20;;;;;;;-0.46;100.00;101138.38;5034082;28;20035;-72
2021/12/03 01:50:10;;;;;;;14.02;4.40;;;;;;;-0.44;100.00;101137.44;5034187;28;20108;-70
2021/12/03 01:52:36;;;;;;;16.50;5.13;;;;;;;-0.27;100.00;101138.50;5033647;28;20117;-70
2021/12/03 01:55:05;;;;;;;24.80;4.97;;;;;;;-0.15;100.00;101139.78;5034092;28;20060;-71
2021/12/03 01:57:31;;;;;;;13.85;4.28;;;;;;;-0.10;100.00;101136.06;5033469;28;20151;-71
2021/12/03 01:59:56;;;;;;;17.92;3.78;;;;;;;-0.07;100.00;101119.41;5032809;28;20060;-71
2021/12/03 02:02:22;;;;;;;20.90;4.13;;;;;;;-0.09;100.00;101111.63;5033599;28;20033;-78
2021/12/03 02:04:47;;;;;;;16.65;4.30;;;;;;;-0.10;100.00;101112.53;5033858;28;20038;-71
2021/12/03 02:07:14;;;;;;;6.78;3.08;;;;;;;-0.12;100.00;101114.38;5033776;28;20026;-70
2021/12/03 02:09:39;;;;;;;11.65;3.05;;;;;;;-0.12;100.00;101103.91;5033523;28;20041;-71
2021/12/03 02:12:05;;;;;;;11.05;3.72;;;;;;;-0.08;100.00;101115.06;5033674;28;20520;-71
2021/12/03 02:14:30;;;;;;;8.98;3.33;;;;;;;-0.05;100.00;101118.41;5033102;28;20120;-71
2021/12/03 02:16:56;;;;;;;8.88;3.22;;;;;;;-0.01;100.00;101130.44;5034250;28;20037;-71
2021/12/03 02:19:21;;;;;;;13.43;3.28;;;;;;;0.00;100.00;101126.09;5032443;28;20025;-76
2021/12/03 02:21:47;;;;;;;16.67;3.50;;;;;;;0.03;100.00;101127.69;5032456;28;20112;-71
2021/12/03 02:24:14;;;;;;;21.10;3.65;;;;;;;0.08;100.00;101128.38;5032298;28;20394;-71
2021/12/03 02:26:41;;;;;;;9.85;3.30;;;;;;;0.11;100.00;101129.09;5032699;28;20527;-71
2021/12/03 02:29:07;;;;;;;20.90;3.40;;;;;;;0.12;100.00;101130.78;5033896;28;20058;-71
2021/12/03 02:31:32;;;;;;;11.13;2.63;;;;;;;0.14;100.00;101128.94;5032873;28;20037;-71
2021/12/03 02:33:58;;;;;;;13.63;2.70;;;;;;;0.14;100.00;101130.72;5033659;28;20038;-72
2021/12/03 02:36:23;;;;;;;20.77;3.83;;;;;;;0.16;100.00;101123.66;5033312;28;20134;-73
2021/12/03 02:38:49;;;;;;;12.73;2.50;;;;;;;0.21;100.00;101110.38;5032698;28;20136;-71
2021/12/03 02:41:15;;;;;;;12.35;2.65;;;;;;;0.20;100.00;101114.75;5033201;28;20117;-72
2021/12/03 02:43:41;;;;;;;11.35;2.72;;;;;;;0.17;100.00;101109.66;5032509;28;20033;-71
2021/12/03 02:46:06;;;;;;;10.07;2.40;;;;;;;0.13;100.00;101111.53;5033204;28;20458;-71
2021/12/03 02:48:35;;;;;;;14.02;3.95;;;;;;;0.10;100.00;101116.91;5032354;28;20025;-71
2021/12/03 02:51:00;;;;;;;13.25;2.45;;;;;;;0.07;100.00;101114.41;5033116;28;20454;-72
2021/12/03 02:53:26;;;;;;;14.75;2.30;;;;;;;0.03;100.00;101115.50;5032923;28;20032;-78
2021/12/03 02:55:52;;;;;;;11.88;2.33;;;;;;;0.03;100.00;101120.72;5032474;28;20033;-72
2021/12/03 02:58:19;;;;;;;9.98;2.50;;;;;;;0.07;100.00;101117.03;5033083;28;20864;-72
2021/12/03 03:00:48;;;;;;;9.57;2.13;;;;;;;0.12;100.00;101117.72;5032402;28;20474;-72
2021/12/03 03:03:14;;;;;;;7.07;2.10;;;;;;;0.15;100.00;101120.19;5033158;28;20026;-72
2021/12/03 03:05:39;;;;;;;11.95;2.70;;;;;;;0.22;100.00;101115.53;5031953;28;20041;-71
2021/12/03 03:08:05;;;;;;;7.93;2.50;;;;;;;0.26;100.00;101122.34;5032756;28;20474;-71
2021/12/03 03:10:35;;;;;;;11.57;2.35;;;;;;;0.33;100.00;101118.56;5032041;28;20103;-78
2021/12/03 03:13:01;;;;;;;8.75;2.20;;;;;;;0.38;100.00;101118.34;5033116;28;20060;-71
2021/12/03 03:15:27;;;;;;;9.00;2.25;;;;;;;0.41;100.00;101114.75;5032601;28;20080;-71
2021/12/03 03:17:53;;;;;;;8.48;2.40;;;;;;;0.44;100.00;101106.75;5031937;28;20410;-71
2021/12/03 03:20:19;;;;;;;12.45;2.42;;;;;;;0.47;100.00;101091.75;5032185;28;20055;-71
2021/12/03 03:22:47;;;;;;;10.77;1.92;;;;;;;0.50;100.00;101081.16;5030485;28;20493;-71
2021/12/03 03:25:15;;;;;;;9.68;2.75;;;;;;;0.56;100.00;101081.81;5032095;28;20071;-71
2021/12/03 03:27:42;;;;;;;7.97;2.00;;;;;;;0.62;100.00;101079.75;5031870;28;20036;-71
2021/12/03 03:30:11;;;;;;;8.05;1.75;;;;;;;0.67;100.00;101087.41;5032486;28;20112;-71
2021/12/03 03:32:37;;;;;;;19.52;2.60;;;;;;;0.75;100.00;101084.41;5030776;28;20419;-71
2021/12/03 03:35:03;;;;;;;14.88;2.05;;;;;;;0.80;100.00;101075.44;5032335;28;20033;-71
2021/12/03 03:37:28;;;;;;;10.80;2.25;;;;;;;0.83;100.00;101072.69;5031961;28;20516;-71
2021/12/03 03:39:54;;;;;;;9.23;2.05;;;;;;;0.83;100.00;101063.97;5031568;28;20033;-71
2021/12/03 03:42:19;;;;;;;8.70;2.38;;;;;;;0.84;100.00;101061.28;5031963;28;20072;-71
2021/12/03 03:44:45;;;;;;;13.27;2.00;;;;;;;0.86;100.00;101058.59;5031979;28;20030;-71
2021/12/03 03:47:11;;;;;;;14.07;1.88;;;;;;;0.88;100.00;101052.38;5032079;28;20033;-71
2021/12/03 03:49:36;;;;;;;8.65;1.40;;;;;;;0.95;100.00;101052.91;5031405;28;20057;-72
2021/12/03 03:52:04;;;;;;;5.80;1.50;;;;;;;1.01;100.00;101047.38;5032096;28;20064;-71
2021/12/03 03:54:29;;;;;;;16.80;2.20;;;;;;;1.07;100.00;101034.94;5030459;28;20051;-71
2021/12/03 03:56:55;;;;;;;18.73;2.72;;;;;;;1.15;100.00;101051.13;5031259;28;20639;-71
2021/12/03 03:59:21;;;;;;;12.38;2.53;;;;;;;1.21;100.00;101043.84;5032000;28;20025;-71
2021/12/03 04:01:48;;;;;;;13.10;2.78;;;;;;;1.21;100.00;101043.84;5031483;28;20067;-71
2021/12/03 04:04:14;;;;;;;6.72;2.20;;;;;;;1.20;100.00;101041.28;5032031;28;20424;-71
2021/12/03 04:06:40;;;;;;;15.57;2.95;;;;;;;1.20;100.00;101041.28;5031174;28;20110;-71
2021/12/03 04:09:05;;;;;;;10.68;2.45;;;;;;;1.17;100.00;101042.28;5031703;28;20156;-71
2021/12/03 04:11:31;;;;;;;8.57;2.33;;;;;;;1.18;100.00;101040.50;5031891;28;20175;-70
2021/12/03 04:13:56;;;;;;;11.65;2.90;;;;;;;1.17;100.00;101047.53;5031367;28;20038;-71
2021/12/03 04:16:22;;;;;;;17.13;2.67;;;;;;;1.18;100.00;101053.59;5031686;28;20037;-71
2021/12/03 04:18:47;;;;;;;18.20;2.55;;;;;;;1.17;100.00;101055.38;5031032;28;20049;-72
2021/12/03 04:21:13;;;;;;;15.63;2.95;;;;;;;1.18;100.00;101050.97;5031595;28;20034;-71
2021/12/03 04:23:38;;;;;;;15.25;2.58;;;;;;;1.23;100.00;101047.22;5031435;28;20087;-76
2021/12/03 04:26:04;;;;;;;11.75;2.85;;;;;;;1.33;100.00;101052.88;5031429;28;20080;-71
2021/12/03 04:28:29;;;;;;;14.90;3.10;;;;;;;1.36;100.00;101050.09;5031623;28;20029;-71
2021/12/03 04:30:55;;;;;;;13.57;2.70;;;;;;;1.44;100.00;101064.63;5030977;28;20034;-71
2021/12/03 04:33:21;;;;;;;25.52;5.05;;;;;;;1.52;100.00;101055.47;5031819;28;20524;-71
2021/12/03 04:35:47;;;;;;;12.30;2.58;;;;;;;1.55;100.00;101051.81;5031081;28;20044;-72
2021/12/03 04:38:13;;;;;;;10.70;2.75;;;;;;;1.57;100.00;101035.09;5031687;28;20054;-72
2021/12/03 04:40:41;;;;;;;13.80;2.90;;;;;;;1.55;100.00;101034.31;5030204;28;20359;-71
2021/12/03 04:43:07;;;;;;;17.02;3.33;;;;;;;1.53;100.00;101027.44;5031394;28;20042;-71
2021/12/03 04:45:32;;;;;;;10.52;2.78;;;;;;;1.51;100.00;101029.31;5035290;28;20060;-71
2021/12/03 04:47:59;;;;;;;20.85;3.35;;;;;;;1.50;100.00;101027.59;5034881;28;20030;-71
2021/12/03 04:50:30;;;;;;;16.05;2.85;;;;;;;1.49;100.00;101018.03;5035959;28;20120;-72
2021/12/03 04:52:56;;;;;;;13.70;3.88;;;;;;;1.48;100.00;101016.31;5034658;28;20073;-71
2021/12/03 04:55:21;;;;;;;13.60;3.53;;;;;;;1.45;100.00;101014.72;5035469;28;20076;-73
2021/12/03 04:57:50;;;;;;;15.07;2.70;;;;;;;1.43;100.00;101011.31;5034822;28;20033;-72
2021/12/03 05:00:19;;;;;;;17.65;3.00;;;;;;;1.41;100.00;101011.38;5035181;28;20033;-71
2021/12/03 05:02:45;;;;;;;14.57;3.45;;;;;;;1.45;100.00;101003.38;5034564;28;20117;-78
2021/12/03 05:05:11;;;;;;;15.98;3.03;;;;;;;1.49;100.00;101010.16;5034974;28;20083;-72
2021/12/03 05:10:02;;;;;;;11.80;3.25;;;;;;;1.58;100.00;101009.69;5033150;28;20044;-71
2021/12/03 05:12:27;;;;;;;10.68;2.95;;;;;;;1.61;100.00;101011.31;5034833;28;20029;-71
2021/12/03 05:14:53;;;;;;;17.13;2.80;;;;;;;1.61;100.00;101003.47;5034264;28;20040;-72
2021/12/03 05:17:18;;;;;;;14.40;2.95;;;;;;;1.56;100.00;101001.91;5034877;28;20033;-72
2021/12/03 05:19:43;;;;;;;7.75;2.70;;;;;;;1.54;100.00;101002.94;5034780;28;20473;-71
2021/12/03 05:22:09;;;;;;;9.98;2.78;;;;;;;1.52;100.00;101000.38;5034247;28;20111;-71
2021/12/03 05:24:34;;;;;;;14.68;2.53;;;;;;;1.48;100.00;100998.84;5033406;28;20044;-71
2021/12/03 05:27:00;;;;;;;13.45;3.20;;;;;;;1.45;100.00;101003.38;5034015;28;20397;-71
2021/12/03 05:29:25;;;;;;;10.52;2.70;;;;;;;1.43;100.00;101011.31;5034702;28;20036;-71
2021/12/03 05:31:50;;;;;;;16.33;3.70;;;;;;;1.40;100.00;101007.09;5033971;28;20108;-72
2021/12/03 05:34:16;;;;;;;15.88;3.35;;;;;;;1.42;100.00;101007.00;5033427;28;20040;-72
2021/12/03 05:36:46;;;;;;;17.25;3.88;;;;;;;1.42;100.00;100999.16;5034442;28;20033;-73
2021/12/03 05:39:12;;;;;;;18.60;4.13;;;;;;;1.43;100.00;100998.19;5033834;28;20060;-70
2021/12/03 05:41:37;;;;;;;15.52;3.70;;;;;;;1.49;100.00;100991.81;5033292;28;20054;-71
2021/12/03 05:44:04;;;;;;;17.63;3.80;;;;;;;1.49;100.00;100982.16;5033795;28;20038;-71
2021/12/03 05:46:30;;;;;;;16.77;4.43;;;;;;;1.53;100.00;100975.00;5034410;28;20025;-71
2021/12/03 05:48:55;;;;;;;15.80;4.60;;;;;;;1.56;100.00;100978.31;5033519;28;20030;-71
2021/12/03 05:51:21;;;;;;;16.48;4.35;;;;;;;1.59;100.00;100975.53;5034229;28;20034;-72
2021/12/03 05:53:46;;;;;;;16.58;3.88;;;;;;;1.62;100.00;100981.56;5032842;28;20029;-71
2021/12/03 05:56:12;;;;;;;23.00;4.32;;;;;;;1.63;100.00;100980.59;5032597;28;20037;-72
2021/12/03 05:58:37;;;;;;;19.17;4.47;;;;;;;1.67;100.00;100982.16;5034169;28;20064;-72
2021/12/03 06:01:03;;;;;;;23.10;4.35;;;;;;;1.69;100.00;100988.19;5033514;28;20083;-72
2021/12/03 06:03:29;;;;;;;24.15;4.50;;;;;;;1.68;100.00;100983.88;5034050;28;20060;-71
2021/12/03 06:05:54;;;;;;;16.77;4.15;;;;;;;1.70;100.00;100989.88;5033519;28;20033;-72
2021/12/03 06:08:20;;;;;;;18.80;4.15;;;;;;;1.71;100.00;100981.09;5029745;28;20040;-72
2021/12/03 06:10:45;;;;;;;19.52;4.20;;;;;;;1.73;100.00;100982.72;5033929;28;20096;-72
2021/12/03 06:13:10;;;;;;;15.63;4.35;;;;;;;1.82;100.00;100983.16;5033305;28;20025;-72
2021/12/03 06:15:36;;;;;;;15.55;4.32;;;;;;;1.83;100.00;100985.69;5033814;28;20033;-72
2021/12/03 06:18:02;;;;;;;23.67;4.05;;;;;;;1.83;100.00;100976.97;5033039;28;20444;-72
2021/12/03 06:20:27;;;;;;;16.58;4.22;;;;;;;1.84;100.00;100979.53;5033736;28;20033;-72
2021/12/03 06:22:53;;;;;;;17.67;4.47;;;;;;;1.85;100.00;100981.22;5033372;28;20516;-77
2021/12/03 06:25:19;;;;;;;17.13;3.75;;;;;;;1.88;100.00;100967.06;5033323;28;20393;-73
2021/12/03 06:27:45;;;;;;;18.20;3.80;;;;;;;1.88;100.00;100980.19;5033480;28;20090;-72
2021/12/03 06:30:18;;;;;;;13.50;3.65;;;;;;;1.90;100.00;100976.56;5033231;28;20037;-73
2021/12/03 06:32:44;;;;;;;18.23;3.03;;;;;;;1.95;100.00;100973.72;5034220;28;20112;-73
2021/12/03 06:35:11;;;;;;;13.65;3.42;;;;;;;1.94;100.00;100966.75;5032863;28;20163;-73
2021/12/03 06:37:37;;;;;;;18.17;3.67;;;;;;;1.96;100.00;100974.53;5033199;28;20470;-74
2021/12/03 06:40:06;;;;;;;15.52;3.92;;;;;;;1.92;100.00;100976.50;5032672;28;20117;-72
2021/12/03 06:42:31;;;;;;;22.95;4.35;;;;;;;1.91;100.00;100967.78;5033127;28;20470;-72
2021/12/03 06:44:57;;;;;;;11.43;3.33;;;;;;;1.89;100.00;100968.78;5032828;28;20044;-76
2021/12/03 06:47:22;;;;;;;14.70;3.97;;;;;;;1.90;100.00;100962.63;5032771;28;20376;-71
2021/12/03 06:49:47;;;;;;;22.42;3.72;;;;;;;1.99;100.00;100958.66;5032930;28;20045;-72
2021/12/03 06:52:15;;;;;;;14.88;3.65;;;;;;;1.97;100.00;100953.50;5032235;28;20401;-72
2021/12/03 06:54:41;;;;;;;18.30;4.05;;;;;;;1.96;100.00;100956.19;5033911;28;20043;-73
2021/12/03 06:57:08;;;;;;;27.52;5.35;;;;;;;1.93;100.00;100959.84;5032350;28;20504;-72
2021/12/03 06:59:35;;;;;;;18.73;4.80;;;;;;;1.90;100.00;100958.22;5032854;28;20030;-72
2021/12/03 07:02:00;;;;;;;25.02;5.20;;;;;;;1.88;100.00;100964.47;5032238;28;20036;-74
2021/12/03 07:04:26;;;;;;;15.38;5.50;;;;;;;1.84;100.00;100970.81;5032837;28;20033;-73
2021/12/03 07:06:51;;;;;;;19.77;5.50;;;;;;;1.78;100.00;100971.97;5032320;28;20036;-73
2021/12/03 07:09:17;;;;;;;23.35;5.88;;;;;;;1.73;99.64;100971.34;5031988;28;20397;-71
2021/12/03 07:11:43;;;;;;;22.15;5.57;;;;;;;1.69;99.66;100981.16;5031427;28;20049;-72
2021/12/03 07:14:09;;;;;;;30.50;5.82;;;;;;;1.70;99.90;100974.13;5032290;28;20060;-71
2021/12/03 07:16:35;;;;;;;27.27;6.10;;;;;;;1.64;99.22;100962.16;5032278;28;20462;-71
2021/12/03 07:19:01;;;;;;;21.15;5.45;;;;;;;1.59;98.94;100967.66;5032498;28;20037;-77
2021/12/03 07:21:27;;;;;;;21.45;5.72;;;;;;;1.56;98.36;100964.34;5030897;28;20033;-72
2021/12/03 07:23:53;;;;;;;23.63;5.30;;;;;;;1.56;98.57;100965.19;5032386;28;20112;-71
2021/12/03 07:26:20;;;;;;;17.80;5.57;;;;;;;1.51;97.72;100961.13;5032001;28;20059;-71
2021/12/03 07:28:46;;;;;;;15.60;5.47;;;;;;;1.48;97.77;100959.50;5031413;28;20469;-72
2021/12/03 07:31:11;;;;;;;20.95;4.72;;;;;;;1.46;97.79;100957.88;5031827;28;20037;-73
2021/12/03 07:33:38;;;;;;;20.23;4.80;;;;;;;1.43;97.90;100955.41;5032051;28;20045;-73
2021/12/03 07:36:05;;;;;;;24.00;5.45;;;;;;;1.40;97.61;100948.53;5031677;28;20025;-80
2021/12/03 07:38:31;;;;;;;18.40;4.35;;;;;;;1.39;97.54;100949.47;5032480;28;20057;-74
2021/12/03 07:40:57;;;;;;;18.25;5.10;;;;;;;1.35;97.57;100940.06;5032570;28;20539;-71
2021/12/03 07:43:22;;;;;;;15.70;4.72;;;;;;;1.32;97.62;100946.31;5031665;28;20044;-70
2021/12/03 07:45:48;;;;;;;22.33;5.43;;;;;;;1.33;97.96;100939.28;5032082;28;20033;-71
2021/12/03 07:48:14;;;;;;;16.65;4.32;;;;;;;1.34;98.05;100949.69;5031481;28;20377;-72
2021/12/03 07:50:41;;;;;;;22.15;6.03;;;;;;;1.37;97.77;100915.47;5031842;28;20093;-72
2021/12/03 07:53:08;;;;;;;18.90;4.90;;;;;;;1.39;96.92;100936.38;5031574;28;20048;-75
2021/12/03 07:55:34;;;;;;;9.05;4.15;;;;;;;1.39;97.20;100946.84;5031964;28;20167;-71
2021/12/03 07:57:59;;;;;;;15.40;5.53;;;;;;;1.39;96.80;100936.38;5031882;28;20057;-72
2021/12/03 08:00:25;;;;;;;20.70;5.22;;;;;;;1.40;97.03;100928.44;5029889;28;20682;-73
2021/12/03 08:02:51;;;;;;;17.17;4.35;;;;;;;1.37;96.05;100932.97;5030816;28;20124;-71
2021/12/03 08:05:17;;;;;;;13.38;4.50;;;;;;;1.37;95.94;100922.47;5031021;28;20385;-73
2021/12/03 08:07:46;;;;;;;20.08;4.43;;;;;;;1.36;96.17;100913.78;5031722;28;20028;-72
2021/12/03 08:10:13;;;;;;;17.83;4.80;;;;;;;1.41;96.14;100924.84;5031125;28;20425;-72
2021/12/03 08:12:39;;;;;;;14.23;4.22;;;;;;;1.44;95.96;100923.84;5031310;28;20549;-71
2021/12/03 08:15:05;;;;;;;9.90;4.50;;;;;;;1.44;96.07;100918.63;5031537;28;20048;-71
2021/12/03 08:17:30;;;;;;;18.25;4.55;;;;;;;1.42;96.33;100910.00;5031115;28;20374;-71
2021/12/03 08:19:56;;;;;;;14.32;4.43;;;;;;;1.46;96.92;100915.91;5034407;28;20112;-72
2021/12/03 08:22:21;;;;;;;19.77;4.63;;;;;;;1.51;97.00;100911.28;5034044;28;20037;-72
2021/12/03 08:24:47;;;;;;;18.85;4.55;;;;;;;1.52;96.77;100920.84;5035750;28;20069;-72
2021/12/03 08:27:12;;;;;;;21.30;5.28;;;;;;;1.54;96.73;100911.97;5035032;28;20041;-73
2021/12/03 08:29:38;;;;;;;8.70;3.70;;;;;;;1.56;95.75;100898.78;5035524;28;20040;-72
2021/12/03 08:32:03;;;;;;;16.02;4.38;;;;;;;1.70;95.32;100898.91;5035706;28;20029;-73
2021/12/03 08:34:29;;;;;;;8.52;3.33;;;;;;;1.75;94.06;100894.25;5034976;28;20088;-73
2021/12/03 08:36:54;;;;;;;14.77;3.20;;;;;;;1.80;94.71;100899.25;5035493;28;20042;-73
2021/12/03 08:39:20;;;;;;;12.02;3.40;;;;;;;1.88;95.43;100883.97;5035031;28;20187;-73
2021/12/03 08:41:46;;;;;;;14.00;3.42;;;;;;;1.92;94.25;100895.13;5035707;28;20113;-73
2021/12/03 08:44:11;;;;;;;17.85;3.20;;;;;;;1.93;94.03;100896.84;5035449;28;20037;-76
2021/12/03 08:46:38;;;;;;;6.90;2.22;;;;;;;1.97;94.34;100892.28;5035029;28;20061;-72
2021/12/03 08:49:11;;;;;;;10.93;2.72;;;;;;;2.00;94.64;100882.47;5035322;28;20040;-74
2021/12/03 08:56:54;;;;;;;10.13;2.00;;;;;;;1.98;93.10;100872.97;5035437;28;20127;-73
2021/12/03 08:59:20;;;;;;;15.40;2.85;;;;;;;1.97;92.80;100868.66;5034685;28;20164;-74
2021/12/03 09:01:46;;;;;;;12.25;2.47;;;;;;;2.05;93.62;100867.31;5035225;28;20075;-72
2021/12/03 09:04:13;;;;;;;10.45;2.22;;;;;;;2.07;93.10;100856.72;5035255;28;20525;-71
2021/12/03 09:06:39;;;;;;;15.70;2.63;;;;;;;2.14;92.60;100847.59;5034564;28;20141;-73
2021/12/03 09:09:07;;;;;;;11.30;2.63;;;;;;;2.20;93.17;100843.78;5035159;28;20108;-74
2021/12/03 09:11:35;;;;;;;17.20;2.95;;;;;;;2.31;91.08;100846.63;5034358;28;20034;-74
2021/12/03 09:14:06;;;;;;;16.45;2.80;;;;;;;2.42;91.24;100849.53;5034842;28;20034;-72
2021/12/03 09:16:32;;;;;;;14.65;3.00;;;;;;;2.42;89.90;100848.69;5034022;28;20107;-73
2021/12/03 09:18:59;;;;;;;11.15;3.05;;;;;;;2.45;90.15;100843.25;5035257;28;20037;-74
2021/12/03 09:21:27;;;;;;;12.45;3.00;;;;;;;2.52;89.75;100841.94;5034327;28;20041;-73
2021/12/03 09:26:18;;;;;;;9.35;2.70;;;;;;;2.55;89.06;100835.69;5034390;28;20037;-77
2021/12/03 09:28:48;;;;;;;8.95;2.63;;;;;;;2.54;89.23;100826.09;5034274;28;20029;-73
2021/12/03 09:31:16;;;;;;;7.13;2.72;;;;;;;2.52;88.64;100839.31;5034368;28;20112;-74
2021/12/03 09:33:44;;;;;;;10.38;2.72;;;;;;;2.47;89.22;100820.38;5034053;28;20033;-73
2021/12/03 09:36:10;;;;;;;7.88;2.67;;;;;;;2.51;89.36;100834.16;5034275;28;20512;-73
2021/12/03 09:38:37;;;;;;;11.90;2.97;;;;;;;2.41;88.36;100833.84;5029354;28;20050;-74
2021/12/03 09:41:15;;;;;;;10.55;3.22;;;;;;;2.37;89.99;100822.66;5034056;28;20389;-73
2021/12/03 09:43:47;;;;;;;10.40;3.00;;;;;;;2.33;89.81;100808.03;5031401;28;20021;-74
2021/12/03 09:46:25;;;;;;;20.83;3.85;;;;;;;2.35;89.80;100810.56;5033727;28;20091;-73
2021/12/03 09:51:37;;;;;;;12.73;2.92;;;;;;;2.37;90.65;100791.16;5033485;28;20040;-73
2021/12/03 09:56:40;;;;;;;12.57;3.50;;;;;;;2.43;91.81;100798.69;5033868;28;20149;-73
2021/12/03 09:59:38;;;;;;;11.32;2.97;;;;;;;2.44;91.33;100797.75;5034059;28;20033;-73
2021/12/03 10:15:11;;;;;;;15.30;3.70;;;;;;;2.45;93.46;100772.34;5033773;28;20091;-72
2021/12/03 10:55:09;;;;;;;11.32;3.67;;;;;;;2.79;89.63;100723.91;5033300;28;20041;-70
2021/12/03 11:00:45;;;;;;;8.02;3.45;;;;;;;2.77;88.87;100698.66;5033189;28;20492;-71
2021/12/03 11:39:17;;;;;;;11.32;3.78;;;;;;;3.11;87.11;100594.91;5031307;28;20100;-73
2021/12/03 12:39:20;;;;;;;9.40;3.97;;;;;;;3.65;86.35;100530.13;5031103;28;20042;-74
2021/12/03 13:24:35;;;;;;;8.00;4.00;;;;;;;3.05;92.70;100484.06;5034980;28;20060;-73
2021/12/03 13:58:38;;;;;;;6.18;4.57;;;;;;;2.97;95.46;100476.66;5034250;28;20052;-74
2021/12/03 14:08:57;;;;;;;5.88;4.15;;;;;;;2.98;96.30;100486.25;5034049;28;20075;-73
2021/12/03 14:41:08;;;;;;;7.55;6.60;;;;;;;2.91;99.61;100450.78;5033775;28;20038;-75
2021/12/03 14:43:51;;;;;;;8.52;6.25;;;;;;;2.90;99.97;100443.84;5032556;28;20129;-74
2021/12/03 14:48:55;;;;;;;8.10;6.90;;;;;;;2.86;100.00;100453.72;5033385;28;20045;-73
2021/12/03 14:51:44;;;;;;;8.35;7.43;;;;;;;2.81;100.00;100448.75;5033201;28;20034;-74
2021/12/03 14:56:47;;;;;;;9.40;8.50;;;;;;;2.77;100.00;100442.00;5033491;28;20076;-74
2021/12/03 14:59:29;;;;;;;9.38;8.48;;;;;;;2.75;100.00;100436.00;5032733;28;20428;-74
2021/12/03 15:02:08;;;;;;;8.93;8.02;;;;;;;2.73;100.00;100430.03;5033558;28;20112;-74
2021/12/03 15:04:53;;;;;;;8.98;8.00;;;;;;;2.75;100.00;100430.75;5033246;28;20033;-74
2021/12/03 15:07:27;;;;;;;12.52;9.32;;;;;;;2.74;100.00;100421.19;5031729;28;20441;-72
2021/12/03 15:09:54;;;;;;;10.90;8.68;;;;;;;2.74;100.00;100421.19;5033229;28;20120;-73
2021/12/03 15:31:15;;;;;;;9.80;8.80;;;;;;;2.92;100.00;100399.91;5032851;28;20041;-78
2021/12/03 15:34:12;;;;;;;9.95;9.00;;;;;;;2.92;100.00;100397.28;5033011;28;20042;-75
2021/12/03 15:37:04;;;;;;;10.48;9.48;;;;;;;2.94;100.00;100409.38;5030983;28;20046;-75
2021/12/03 16:03:51;;;;;;;11.32;9.27;;;;;;;3.01;100.00;100386.16;5010009;28;20133;-76
2021/12/03 16:08:59;;;;;;;10.95;9.07;;;;;;;2.99;100.00;100367.88;5010009;28;20364;-76
2021/12/03 16:11:36;;;;;;;12.40;10.82;;;;;;;2.96;100.00;100365.44;5009302;28;20041;-77
2021/12/03 16:17:03;;;;;;;14.05;10.40;;;;;;;2.97;100.00;100375.03;5009876;28;20057;-75
2021/12/03 16:22:30;;;;;;;12.77;10.95;;;;;;;2.93;100.00;100383.22;4978181;28;20096;-78
2021/12/03 16:50:11;;;;;;;13.68;12.30;;;;;;;3.04;100.00;100382.50;5013697;28;20466;-75
2021/12/03 16:54:09;;;;;;;12.98;11.63;;;;;;;3.05;100.00;100368.41;5012986;28;20152;-76
2021/12/03 16:56:36;;;;;;;13.75;12.35;;;;;;;3.05;100.00;100364.00;5012509;28;20117;-75
2021/12/03 16:59:03;;;;;;;14.50;12.48;;;;;;;3.05;100.00;100356.09;5013260;28;20108;-73
2021/12/03 17:01:42;;;;;;;19.40;14.40;;;;;;;3.07;100.00;100353.38;5012610;28;20029;-75
2021/12/03 17:11:54;;;;;;;16.55;13.90;;;;;;;3.09;100.00;100325.19;5012905;28;20065;-74
2021/12/03 17:20:05;;;;;;;18.05;16.10;;;;;;;3.14;100.00;100316.03;5012511;28;20477;-76
2021/12/03 17:23:19;;;;;;;18.85;16.60;;;;;;;3.11;100.00;100315.41;5011782;28;20498;-76
2021/12/03 17:59:50;;;;;;;17.65;15.80;;;;;;;3.09;100.00;100301.53;5011827;28;20422;-77
2021/12/03 18:07:29;;;;;;;20.88;17.10;;;;;;;2.99;100.00;100302.16;5011294;28;20065;-76
2021/12/03 18:56:55;;;;;;;25.30;18.60;;;;;;;3.06;100.00;100315.75;5010678;28;20041;-76